createdAt,value
2018-03-07T00:00:32.049Z,68.20
2018-03-07T00:01:32.223Z,71.90
2018-03-07T00:02:32.397Z,68.80
2018-03-07T00:03:32.575Z,67.30
2018-03-07T00:04:32.752Z,71.80
2018-03-07T00:05:32.918Z,72.30
2018-03-07T00:06:33.097Z,68.60
2018-03-07T00:07:33.277Z,75.60
2018-03-07T00:08:33.446Z,69.70
2018-03-07T00:09:33.624Z,70.90
2018-03-07T00:11:33.986Z,70.50
2018-03-07T00:12:34.142Z,71.40
2018-03-07T00:13:34.318Z,71.70
2018-03-07T00:14:34.497Z,71.20
2018-03-07T00:15:34.669Z,70.80
2018-03-07T00:16:34.846Z,70.00
2018-03-07T00:17:35.020Z,69.70
2018-03-07T00:18:35.195Z,69.80
2018-03-07T00:19:35.378Z,69.40
2018-03-07T00:20:35.904Z,68.80
2018-03-07T00:21:35.729Z,70.80
2018-03-07T00:22:35.900Z,68.90
2018-03-07T00:23:36.109Z,67.10
2018-03-07T00:24:36.247Z,65.60
2018-03-07T00:25:36.427Z,71.10
2018-03-07T00:26:36.589Z,69.70
2018-03-07T00:27:36.760Z,65.60
2018-03-07T00:28:36.939Z,70.80
2018-03-07T00:29:37.120Z,69.20
2018-03-07T00:30:37.291Z,69.10
2018-03-07T00:31:37.467Z,71.00
2018-03-07T00:32:37.641Z,69.20
2018-03-07T00:33:37.817Z,73.00
2018-03-07T00:34:37.988Z,71.50
2018-03-07T00:35:38.162Z,75.30
2018-03-07T00:36:38.341Z,73.50
2018-03-07T00:37:38.519Z,75.40
2018-03-07T00:38:38.683Z,74.50
2018-03-07T00:39:38.861Z,74.70
2018-03-07T00:40:39.037Z,77.00
2018-03-07T00:41:39.210Z,75.80
2018-03-07T00:42:39.393Z,72.40
2018-03-07T00:43:39.565Z,79.00
2018-03-07T00:44:39.742Z,74.40
2018-03-07T00:45:39.901Z,70.80
2018-03-07T00:46:40.078Z,67.70
2018-03-07T00:47:40.257Z,73.30
2018-03-07T00:48:40.431Z,72.20
2018-03-07T00:49:40.607Z,68.00
2018-03-07T00:50:40.774Z,72.00
2018-03-07T00:51:40.956Z,74.00
2018-03-07T00:52:41.132Z,76.40
2018-03-07T00:53:41.301Z,81.60
2018-03-07T00:54:41.479Z,76.80
2018-03-07T00:55:41.648Z,74.50
2018-03-07T00:56:41.824Z,73.40
2018-03-07T00:57:41.998Z,71.60
2018-03-07T00:58:42.179Z,76.90
2018-03-07T00:59:42.353Z,74.80
2018-03-07T01:00:42.531Z,67.70
2018-03-07T01:01:42.704Z,69.90
2018-03-07T01:02:42.881Z,66.40
2018-03-07T01:03:43.050Z,69.70
2018-03-07T01:04:43.230Z,68.00
2018-03-07T01:05:43.403Z,68.00
2018-03-07T01:06:43.579Z,68.00
2018-03-07T01:07:43.753Z,73.80
2018-03-07T01:08:43.935Z,66.00
2018-03-07T01:09:44.101Z,68.10
2018-03-07T01:10:44.528Z,71.50
2018-03-07T01:11:44.457Z,74.50
2018-03-07T01:12:44.628Z,66.40
2018-03-07T01:13:44.808Z,64.60
2018-03-07T01:14:44.984Z,68.20
2018-03-07T01:15:45.177Z,68.40
2018-03-07T01:16:45.324Z,69.20
2018-03-07T01:17:45.501Z,66.20
2018-03-07T01:18:45.680Z,67.80
2018-03-07T01:19:45.851Z,69.80
2018-03-07T01:20:46.278Z,67.90
2018-03-07T01:21:46.204Z,66.00
2018-03-07T01:22:46.378Z,62.40
2018-03-07T01:23:46.559Z,66.80
2018-03-07T01:24:46.723Z,68.50
2018-03-07T01:25:46.908Z,68.70
2018-03-07T01:26:47.091Z,71.80
2018-03-07T01:27:47.249Z,69.50
2018-03-07T01:28:47.422Z,73.00
2018-03-07T01:29:47.597Z,68.20
2018-03-07T01:30:47.773Z,67.50
2018-03-07T01:31:47.951Z,70.80
2018-03-07T01:32:48.123Z,70.50
2018-03-07T01:33:48.300Z,68.90
2018-03-07T01:34:48.473Z,66.80
2018-03-07T01:35:48.650Z,67.70
2018-03-07T01:36:48.825Z,68.90
2018-03-07T01:37:48.997Z,70.50
2018-03-07T01:38:49.177Z,62.40
2018-03-07T01:39:49.347Z,66.10
2018-03-07T01:40:49.528Z,68.10
2018-03-07T01:41:49.705Z,66.60
2018-03-07T01:42:49.872Z,68.80
2018-03-07T01:44:50.218Z,67.40
2018-03-07T01:45:50.388Z,68.40
2018-03-07T01:46:50.556Z,67.90
2018-03-07T01:47:50.735Z,70.70
2018-03-07T01:48:50.907Z,67.60
2018-03-07T01:49:51.083Z,67.40
2018-03-07T01:50:51.254Z,69.70
2018-03-07T01:51:51.431Z,68.50
2018-03-07T01:52:51.604Z,70.40
2018-03-07T01:53:51.778Z,69.90
2018-03-07T01:54:51.948Z,68.20
2018-03-07T01:55:52.126Z,65.00
2018-03-07T01:56:52.304Z,71.10
2018-03-07T01:57:52.475Z,67.70
2018-03-07T01:58:52.655Z,64.80
2018-03-07T01:59:52.825Z,69.30
2018-03-07T02:00:53.003Z,67.30
2018-03-07T02:01:53.172Z,64.00
2018-03-07T02:02:53.346Z,70.80
2018-03-07T02:03:53.528Z,66.90
2018-03-07T02:04:53.694Z,67.90
2018-03-07T02:05:53.872Z,71.00
2018-03-07T02:06:54.042Z,67.10
2018-03-07T02:07:54.217Z,69.10
2018-03-07T02:08:54.392Z,67.30
2018-03-07T02:09:54.564Z,71.80
2018-03-07T02:10:54.744Z,68.70
2018-03-07T02:11:54.927Z,65.10
2018-03-07T02:12:55.084Z,65.70
2018-03-07T02:13:55.504Z,68.90
2018-03-07T02:14:55.445Z,69.80
2018-03-07T02:15:55.612Z,67.10
2018-03-07T02:17:55.955Z,66.90
2018-03-07T02:18:56.136Z,69.10
2018-03-07T02:19:56.303Z,69.80
2018-03-07T02:20:56.483Z,69.00
2018-03-07T02:21:56.649Z,65.10
2018-03-07T02:22:56.824Z,64.90
2018-03-07T02:23:56.994Z,67.70
2018-03-07T02:24:57.168Z,71.30
2018-03-07T02:25:57.345Z,67.40
2018-03-07T02:26:57.523Z,64.70
2018-03-07T02:27:57.691Z,70.50
2018-03-07T02:28:57.866Z,67.90
2018-03-07T02:29:58.039Z,65.50
2018-03-07T02:30:58.217Z,69.80
2018-03-07T02:31:58.394Z,63.60
2018-03-07T02:32:58.577Z,66.70
2018-03-07T02:33:58.745Z,69.20
2018-03-07T02:34:58.923Z,65.60
2018-03-07T02:35:59.092Z,71.20
2018-03-07T02:36:59.274Z,67.50
2018-03-07T02:37:59.446Z,65.30
2018-03-07T02:38:59.641Z,66.70
2018-03-07T02:39:59.808Z,69.30
2018-03-07T02:40:59.982Z,68.30
2018-03-07T02:42:00.161Z,64.00
2018-03-07T02:43:00.349Z,68.20
2018-03-07T02:44:00.498Z,69.00
2018-03-07T02:45:00.677Z,67.20
2018-03-07T02:46:00.850Z,67.50
2018-03-07T02:47:01.015Z,69.30
2018-03-07T02:48:01.189Z,66.20
2018-03-07T02:49:01.362Z,65.70
2018-03-07T02:50:01.541Z,66.00
2018-03-07T02:51:01.714Z,66.60
2018-03-07T02:52:01.889Z,70.70
2018-03-07T02:53:02.068Z,70.20
2018-03-07T02:54:02.236Z,71.40
2018-03-07T02:55:02.422Z,71.20
2018-03-07T02:56:02.585Z,68.20
2018-03-07T02:57:02.765Z,69.50
2018-03-07T02:58:02.936Z,69.30
2018-03-07T02:59:03.112Z,71.80
2018-03-07T03:00:03.289Z,73.30
2018-03-07T03:01:03.464Z,67.70
2018-03-07T03:02:03.636Z,68.40
2018-03-07T03:03:03.815Z,73.80
2018-03-07T03:04:03.989Z,68.90
2018-03-07T03:05:04.165Z,70.80
2018-03-07T03:06:04.344Z,66.70
2018-03-07T03:07:04.509Z,71.10
2018-03-07T03:08:04.696Z,75.00
2018-03-07T03:09:04.879Z,67.90
2018-03-07T03:10:05.043Z,71.60
2018-03-07T03:11:05.208Z,64.80
2018-03-07T03:12:05.388Z,70.40
2018-03-07T03:13:05.562Z,66.90
2018-03-07T03:14:05.736Z,70.10
2018-03-07T03:15:05.913Z,69.80
2018-03-07T03:16:06.090Z,68.80
2018-03-07T03:17:06.263Z,69.50
2018-03-07T03:18:06.436Z,66.70
2018-03-07T03:19:06.614Z,69.10
2018-03-07T03:20:06.799Z,66.90
2018-03-07T03:21:06.966Z,67.80
2018-03-07T03:22:07.142Z,66.10
2018-03-07T03:23:07.315Z,71.10
2018-03-07T03:24:07.490Z,69.90
2018-03-07T03:25:07.664Z,70.40
2018-03-07T03:26:07.837Z,69.40
2018-03-07T03:28:08.185Z,72.80
2018-03-07T03:29:08.367Z,70.00
2018-03-07T03:30:08.539Z,67.90
2018-03-07T03:31:08.713Z,70.40
2018-03-07T03:32:08.896Z,69.70
2018-03-07T03:33:09.074Z,69.30
2018-03-07T03:34:09.249Z,73.20
2018-03-07T03:35:09.422Z,71.00
2018-03-07T03:36:09.603Z,66.80
2018-03-07T03:37:09.775Z,74.30
2018-03-07T03:38:09.947Z,66.80
2018-03-07T03:39:10.121Z,70.00
2018-03-07T03:40:10.299Z,74.10
2018-03-07T03:41:10.479Z,74.10
2018-03-07T03:42:10.652Z,72.00
2018-03-07T03:43:10.826Z,74.90
2018-03-07T03:44:10.997Z,78.60
2018-03-07T03:45:11.166Z,72.00
2018-03-07T03:46:11.343Z,72.60
2018-03-07T03:47:11.524Z,76.40
2018-03-07T03:48:11.689Z,74.50
2018-03-07T03:49:11.859Z,72.50
2018-03-07T03:50:12.039Z,77.90
2018-03-07T03:51:12.211Z,74.40
2018-03-07T03:52:12.385Z,77.10
2018-03-07T03:53:12.560Z,76.50
2018-03-07T03:54:12.735Z,80.70
2018-03-07T03:55:12.905Z,75.20
2018-03-07T03:56:13.082Z,73.40
2018-03-07T03:57:13.253Z,77.30
2018-03-07T03:58:13.428Z,77.50
2018-03-07T03:59:13.600Z,76.60
2018-03-07T04:00:13.775Z,75.20
2018-03-07T04:01:13.951Z,78.50
2018-03-07T04:02:14.130Z,77.60
2018-03-07T04:03:14.303Z,74.60
2018-03-07T04:04:14.474Z,75.30
2018-03-07T04:05:14.652Z,79.50
2018-03-07T04:06:14.823Z,74.20
2018-03-07T04:07:15.004Z,78.50
2018-03-07T04:08:15.176Z,77.10
2018-03-07T04:09:15.355Z,79.10
2018-03-07T04:10:15.523Z,79.80
2018-03-07T04:11:15.704Z,74.50
2018-03-07T04:12:16.120Z,83.50
2018-03-07T04:13:16.044Z,79.00
2018-03-07T04:14:16.219Z,79.40
2018-03-07T04:15:16.402Z,80.00
2018-03-07T04:16:16.567Z,83.80
2018-03-07T04:17:16.742Z,82.70
2018-03-07T04:18:16.917Z,81.80
2018-03-07T04:19:17.090Z,81.10
2018-03-07T04:20:17.264Z,78.70
2018-03-07T04:21:17.452Z,78.20
2018-03-07T04:22:17.620Z,77.10
2018-03-07T04:23:17.790Z,79.30
2018-03-07T04:24:17.968Z,77.70
2018-03-07T04:25:18.141Z,77.70
2018-03-07T04:26:18.308Z,81.60
2018-03-07T04:27:18.488Z,77.00
2018-03-07T04:28:18.657Z,76.70
2018-03-07T04:29:18.832Z,81.00
2018-03-07T04:30:19.006Z,80.60
2018-03-07T04:31:19.178Z,80.20
2018-03-07T04:32:19.366Z,79.80
2018-03-07T04:33:19.530Z,79.90
2018-03-07T04:34:19.708Z,80.20
2018-03-07T04:35:19.874Z,80.40
2018-03-07T04:36:20.047Z,79.50
2018-03-07T04:37:20.233Z,79.90
2018-03-07T04:38:20.397Z,79.00
2018-03-07T04:39:20.580Z,84.60
2018-03-07T04:40:20.750Z,81.90
2018-03-07T04:41:20.922Z,82.80
2018-03-07T04:42:21.096Z,83.60
2018-03-07T04:43:21.269Z,80.90
2018-03-07T04:44:21.447Z,80.20
2018-03-07T04:45:21.623Z,87.70
2018-03-07T04:46:21.792Z,84.40
2018-03-07T04:47:22.208Z,86.20
2018-03-07T04:48:22.149Z,84.60
2018-03-07T04:49:22.321Z,81.40
2018-03-07T04:50:22.499Z,84.60
2018-03-07T04:51:22.675Z,81.70
2018-03-07T04:52:22.843Z,89.80
2018-03-07T04:53:23.015Z,87.50
2018-03-07T04:54:23.193Z,88.20
2018-03-07T04:55:23.364Z,89.30
2018-03-07T04:56:23.540Z,88.50
2018-03-07T04:57:23.713Z,87.40
2018-03-07T04:58:23.888Z,88.40
2018-03-07T04:59:24.065Z,89.10
2018-03-07T05:01:24.406Z,86.00
2018-03-07T05:02:24.585Z,88.80
2018-03-07T05:03:24.759Z,89.00
2018-03-07T05:04:24.930Z,85.70
2018-03-07T05:05:25.103Z,87.20
2018-03-07T05:06:25.276Z,86.20
2018-03-07T05:07:25.451Z,85.00
2018-03-07T05:08:25.628Z,85.50
2018-03-07T05:09:25.803Z,83.20
2018-03-07T05:10:25.985Z,85.10
2018-03-07T05:11:26.146Z,80.30
2018-03-07T05:12:26.324Z,89.10
2018-03-07T05:13:26.493Z,86.20
2018-03-07T05:14:26.668Z,86.50
2018-03-07T05:15:26.849Z,85.20
2018-03-07T05:16:27.017Z,86.60
2018-03-07T05:17:27.188Z,84.00
2018-03-07T05:18:27.365Z,86.40
2018-03-07T05:19:27.541Z,91.10
2018-03-07T05:20:27.724Z,82.40
2018-03-07T05:21:27.890Z,87.70
2018-03-07T05:22:28.069Z,85.90
2018-03-07T05:23:28.243Z,86.70
2018-03-07T05:24:28.407Z,89.40
2018-03-07T05:25:28.592Z,87.70
2018-03-07T05:26:28.758Z,84.70
2018-03-07T05:27:28.935Z,91.00
2018-03-07T05:28:29.111Z,89.30
2018-03-07T05:29:29.289Z,88.50
2018-03-07T05:30:29.465Z,87.20
2018-03-07T05:31:29.637Z,93.50
2018-03-07T05:32:29.816Z,90.20
2018-03-07T05:33:29.991Z,88.20
2018-03-07T05:34:30.157Z,90.00
2018-03-07T05:35:30.331Z,89.60
2018-03-07T05:36:30.507Z,87.30
2018-03-07T05:37:30.682Z,94.90
2018-03-07T05:38:30.860Z,95.00
2018-03-07T05:39:31.030Z,93.70
2018-03-07T05:40:31.206Z,93.20
2018-03-07T05:41:31.381Z,94.00
2018-03-07T05:42:31.553Z,95.20
2018-03-07T05:44:31.894Z,94.30
2018-03-07T05:45:32.069Z,100.40
2018-03-07T05:46:32.244Z,96.20
2018-03-07T05:47:32.418Z,98.00
2018-03-07T05:48:32.594Z,96.50
2018-03-07T05:49:32.776Z,96.80
2018-03-07T05:50:32.943Z,98.70
2018-03-07T05:51:33.128Z,97.90
2018-03-07T05:52:33.300Z,102.70
2018-03-07T05:53:33.487Z,98.60
2018-03-07T05:54:33.656Z,99.90
2018-03-07T05:55:33.822Z,94.70
2018-03-07T05:56:33.998Z,92.60
2018-03-07T05:57:34.171Z,95.80
2018-03-07T05:58:34.344Z,95.00
2018-03-07T05:59:34.519Z,98.00
2018-03-07T06:00:34.695Z,99.80
2018-03-07T06:01:34.873Z,102.20
2018-03-07T06:02:35.049Z,97.10
2018-03-07T06:03:35.222Z,93.60
2018-03-07T06:04:35.402Z,99.50
2018-03-07T06:05:35.579Z,102.00
2018-03-07T06:06:35.756Z,96.80
2018-03-07T06:07:35.933Z,94.80
2018-03-07T06:08:36.104Z,100.00
2018-03-07T06:09:36.280Z,96.30
2018-03-07T06:10:36.455Z,98.00
2018-03-07T06:11:36.633Z,99.50
2018-03-07T06:12:36.805Z,99.20
2018-03-07T06:13:36.979Z,95.80
2018-03-07T06:14:37.155Z,100.40
2018-03-07T06:15:37.339Z,97.60
2018-03-07T06:16:37.507Z,100.00
2018-03-07T06:17:37.690Z,103.20
2018-03-07T06:18:37.865Z,101.50
2018-03-07T06:19:38.048Z,101.50
2018-03-07T06:20:38.223Z,99.90
2018-03-07T06:21:38.400Z,104.30
2018-03-07T06:22:38.591Z,100.80
2018-03-07T06:23:38.772Z,102.40
2018-03-07T06:24:38.942Z,101.30
2018-03-07T06:25:39.121Z,103.20
2018-03-07T06:26:39.291Z,104.10
2018-03-07T06:27:39.462Z,103.00
2018-03-07T06:28:39.638Z,110.80
2018-03-07T06:29:39.817Z,108.50
2018-03-07T06:30:40.242Z,111.40
2018-03-07T06:31:40.164Z,109.20
2018-03-07T06:32:40.335Z,107.40
2018-03-07T06:33:40.518Z,105.70
2018-03-07T06:34:40.685Z,112.40
2018-03-07T06:35:40.871Z,111.20
2018-03-07T06:36:41.038Z,113.50
2018-03-07T06:37:41.217Z,116.80
2018-03-07T06:38:41.390Z,118.30
2018-03-07T06:39:41.559Z,113.80
2018-03-07T06:40:41.739Z,120.90
2018-03-07T06:41:41.915Z,119.30
2018-03-07T06:42:42.092Z,114.90
2018-03-07T06:43:42.294Z,113.40
2018-03-07T06:44:42.430Z,116.60
2018-03-07T06:45:42.607Z,119.40
2018-03-07T06:46:42.781Z,116.00
2018-03-07T06:47:42.959Z,121.90
2018-03-07T06:48:43.137Z,116.20
2018-03-07T06:49:43.313Z,115.20
2018-03-07T06:50:43.492Z,121.70
2018-03-07T06:51:43.684Z,115.60
2018-03-07T06:52:43.846Z,117.70
2018-03-07T06:53:44.025Z,117.30
2018-03-07T06:54:44.205Z,122.80
2018-03-07T06:55:44.376Z,128.30
2018-03-07T06:56:44.549Z,118.40
2018-03-07T06:57:44.726Z,121.70
2018-03-07T06:58:44.915Z,124.50
2018-03-07T06:59:45.086Z,121.40
2018-03-07T07:00:45.262Z,114.70
2018-03-07T07:01:45.434Z,114.80
2018-03-07T07:02:45.612Z,126.70
2018-03-07T07:03:45.794Z,125.90
2018-03-07T07:04:45.962Z,130.70
2018-03-07T07:05:46.138Z,133.90
2018-03-07T07:06:46.313Z,128.30
2018-03-07T07:07:46.493Z,137.60
2018-03-07T07:08:46.659Z,127.60
2018-03-07T07:09:46.838Z,132.20
2018-03-07T07:10:47.026Z,125.80
2018-03-07T07:11:47.190Z,125.00
2018-03-07T07:12:47.369Z,125.00
2018-03-07T07:13:47.543Z,128.10
2018-03-07T07:14:47.732Z,136.70
2018-03-07T07:15:47.901Z,128.10
2018-03-07T07:16:48.094Z,134.40
2018-03-07T07:17:48.249Z,134.90
2018-03-07T07:18:48.438Z,168.70
2018-03-07T07:19:48.612Z,136.40
2018-03-07T07:20:48.790Z,129.70
2018-03-07T07:21:48.963Z,137.50
2018-03-07T07:22:49.138Z,132.70
2018-03-07T07:23:49.331Z,133.20
2018-03-07T07:24:49.491Z,140.80
2018-03-07T07:25:49.663Z,128.40
2018-03-07T07:26:49.858Z,128.80
2018-03-07T07:27:50.012Z,131.90
2018-03-07T07:28:50.188Z,131.00
2018-03-07T07:29:50.367Z,130.70
2018-03-07T07:30:50.544Z,125.00
2018-03-07T07:31:50.713Z,126.10
2018-03-07T07:32:50.906Z,126.60
2018-03-07T07:33:51.079Z,131.10
2018-03-07T07:34:51.250Z,131.40
2018-03-07T07:35:51.420Z,123.90
2018-03-07T07:36:51.605Z,120.60
2018-03-07T07:37:51.769Z,126.00
2018-03-07T07:38:51.944Z,125.80
2018-03-07T07:39:52.116Z,129.40
2018-03-07T07:40:52.310Z,130.30
2018-03-07T07:41:52.485Z,131.20
2018-03-07T07:42:52.652Z,128.60
2018-03-07T07:43:52.811Z,124.20
2018-03-07T07:44:52.987Z,127.10
2018-03-07T07:45:53.168Z,120.30
2018-03-07T07:46:53.347Z,128.10
2018-03-07T07:47:53.516Z,125.10
2018-03-07T07:48:53.709Z,122.70
2018-03-07T07:49:53.864Z,130.30
2018-03-07T07:50:54.032Z,123.70
2018-03-07T07:51:54.226Z,123.90
2018-03-07T07:52:54.397Z,121.90
2018-03-07T07:53:54.570Z,116.30
2018-03-07T07:54:54.763Z,116.10
2018-03-07T07:55:54.941Z,113.90
2018-03-07T07:56:55.114Z,111.70
2018-03-07T07:57:55.298Z,113.90
2018-03-07T07:58:55.473Z,116.00
2018-03-07T07:59:55.643Z,116.20
2018-03-07T08:00:55.828Z,115.00
2018-03-07T08:01:55.998Z,115.50
2018-03-07T08:02:56.178Z,110.70
2018-03-07T08:03:56.355Z,107.90
2018-03-07T08:04:56.524Z,105.30
2018-03-07T08:05:56.714Z,107.00
2018-03-07T08:06:56.879Z,108.20
2018-03-07T08:07:57.053Z,109.30
2018-03-07T08:08:57.227Z,112.40
2018-03-07T08:09:57.406Z,110.10
2018-03-07T08:10:57.613Z,110.20
2018-03-07T08:11:57.791Z,108.10
2018-03-07T08:12:57.955Z,106.70
2018-03-07T08:13:58.139Z,107.30
2018-03-07T08:14:58.301Z,103.90
2018-03-07T08:15:58.475Z,109.20
2018-03-07T08:16:58.653Z,104.90
2018-03-07T08:17:58.832Z,104.90
2018-03-07T08:18:59.018Z,95.10
2018-03-07T08:19:59.186Z,97.90
2018-03-07T08:20:59.363Z,100.10
2018-03-07T08:21:59.552Z,99.40
2018-03-07T08:22:59.710Z,107.30
2018-03-07T08:23:59.894Z,102.80
2018-03-07T08:25:00.082Z,104.20
2018-03-07T08:26:00.236Z,100.50
2018-03-07T08:27:00.405Z,96.30
2018-03-07T08:28:00.589Z,91.90
2018-03-07T08:29:00.771Z,96.80
2018-03-07T08:30:00.935Z,97.50
2018-03-07T08:31:01.116Z,100.10
2018-03-07T08:32:01.295Z,93.60
2018-03-07T08:33:01.474Z,91.40
2018-03-07T08:34:01.647Z,93.00
2018-03-07T08:35:01.822Z,86.60
2018-03-07T08:36:02.004Z,89.30
2018-03-07T08:37:02.181Z,87.40
2018-03-07T08:38:02.612Z,85.90
2018-03-07T08:39:02.532Z,81.10
2018-03-07T08:40:02.714Z,84.60
2018-03-07T08:41:02.894Z,83.50
2018-03-07T08:42:03.054Z,88.70
2018-03-07T08:43:03.240Z,92.30
2018-03-07T08:44:03.406Z,82.60
2018-03-07T08:45:03.583Z,80.10
2018-03-07T08:46:03.792Z,80.20
2018-03-07T08:47:03.943Z,83.70
2018-03-07T08:48:04.140Z,83.70
2018-03-07T08:49:04.311Z,76.90
2018-03-07T08:50:04.491Z,74.90
2018-03-07T08:51:04.666Z,71.70
2018-03-07T08:52:04.843Z,73.40
2018-03-07T08:53:05.015Z,66.60
2018-03-07T08:54:05.189Z,68.30
2018-03-07T08:55:05.365Z,63.50
2018-03-07T08:56:05.540Z,63.50
2018-03-07T08:57:05.725Z,59.10
2018-03-07T08:58:05.959Z,61.80
2018-03-07T08:59:06.073Z,55.90
2018-03-07T09:00:06.261Z,56.40
2018-03-07T09:01:06.437Z,55.70
2018-03-07T09:02:06.613Z,55.00
2018-03-07T09:03:06.792Z,54.40
2018-03-07T09:04:06.964Z,51.60
2018-03-07T09:05:07.140Z,54.50
2018-03-07T09:06:07.319Z,52.80
2018-03-07T09:07:07.494Z,54.40
2018-03-07T09:09:07.855Z,52.50
2018-03-07T09:10:08.042Z,53.30
2018-03-07T09:11:08.211Z,53.10
2018-03-07T09:12:08.394Z,54.00
2018-03-07T09:13:08.568Z,50.90
2018-03-07T09:14:08.756Z,53.90
2018-03-07T09:15:08.917Z,53.00
2018-03-07T09:16:09.097Z,54.00
2018-03-07T09:17:09.278Z,56.20
2018-03-07T09:18:09.455Z,53.70
2018-03-07T09:19:09.629Z,57.70
2018-03-07T09:20:09.802Z,54.80
2018-03-07T09:21:09.997Z,56.70
2018-03-07T09:22:10.154Z,55.00
2018-03-07T09:23:10.324Z,55.30
2018-03-07T09:24:10.503Z,53.80
2018-03-07T09:25:10.677Z,53.30
2018-03-07T09:26:10.855Z,56.00
2018-03-07T09:27:11.054Z,54.00
2018-03-07T09:28:11.212Z,55.10
2018-03-07T09:29:11.397Z,58.00
2018-03-07T09:30:11.570Z,55.80
2018-03-07T09:31:11.750Z,56.10
2018-03-07T09:32:11.931Z,53.90
2018-03-07T09:33:12.102Z,55.00
2018-03-07T09:34:12.286Z,55.10
2018-03-07T09:35:12.454Z,54.80
2018-03-07T09:36:12.625Z,60.90
2018-03-07T09:37:12.804Z,57.80
2018-03-07T09:38:12.983Z,57.70
2018-03-07T09:39:13.162Z,56.10
2018-03-07T09:40:13.335Z,58.20
2018-03-07T09:41:13.514Z,61.70
2018-03-07T09:42:13.696Z,60.80
2018-03-07T09:43:13.874Z,61.00
2018-03-07T09:44:14.055Z,57.90
2018-03-07T09:45:14.480Z,61.40
2018-03-07T09:46:14.410Z,60.60
2018-03-07T09:47:14.593Z,60.80
2018-03-07T09:48:14.764Z,60.10
2018-03-07T09:49:14.942Z,59.70
2018-03-07T09:50:15.120Z,60.20
2018-03-07T09:51:15.345Z,57.80
2018-03-07T09:52:15.487Z,59.60
2018-03-07T09:53:15.663Z,60.00
2018-03-07T09:54:15.842Z,60.20
2018-03-07T09:55:16.023Z,59.40
2018-03-07T09:56:16.217Z,61.50
2018-03-07T09:57:16.373Z,65.10
2018-03-07T09:58:16.560Z,66.40
2018-03-07T09:59:16.711Z,57.70
2018-03-07T10:00:16.884Z,55.70
2018-03-07T10:01:17.073Z,53.40
2018-03-07T10:02:17.242Z,52.40
2018-03-07T10:03:17.423Z,50.90
2018-03-07T10:04:17.601Z,50.70
2018-03-07T10:05:17.778Z,50.80
2018-03-07T10:06:17.967Z,52.30
2018-03-07T10:07:18.148Z,50.20
2018-03-07T10:08:18.335Z,50.90
2018-03-07T10:09:18.516Z,50.70
2018-03-07T10:10:18.693Z,48.40
2018-03-07T10:11:18.877Z,51.40
2018-03-07T10:12:19.059Z,48.60
2018-03-07T10:13:19.247Z,48.20
2018-03-07T10:14:19.429Z,47.10
2018-03-07T10:15:19.628Z,48.90
2018-03-07T10:16:19.796Z,46.40
2018-03-07T10:17:19.976Z,49.90
2018-03-07T10:18:20.157Z,46.40
2018-03-07T10:19:20.337Z,49.30
2018-03-07T10:20:20.526Z,47.70
2018-03-07T10:21:20.725Z,45.90
2018-03-07T10:22:20.880Z,52.50
2018-03-07T10:23:21.079Z,49.10
2018-03-07T10:24:21.239Z,50.50
2018-03-07T10:25:21.413Z,50.70
2018-03-07T10:26:21.592Z,51.90
2018-03-07T10:27:21.775Z,54.50
2018-03-07T10:28:21.956Z,49.00
2018-03-07T10:30:22.317Z,49.50
2018-03-07T10:31:22.481Z,47.50
2018-03-07T10:32:22.683Z,48.20
2018-03-07T10:33:22.857Z,44.70
2018-03-07T10:34:23.043Z,45.70
2018-03-07T10:35:23.221Z,49.20
2018-03-07T10:36:23.403Z,45.70
2018-03-07T10:37:23.585Z,48.80
2018-03-07T10:38:23.769Z,45.00
2018-03-07T10:39:23.950Z,46.90
2018-03-07T10:40:24.126Z,44.30
2018-03-07T10:41:24.309Z,45.20
2018-03-07T10:42:24.496Z,41.00
2018-03-07T10:43:24.674Z,42.30
2018-03-07T10:44:24.851Z,41.80
2018-03-07T10:45:25.036Z,39.00
2018-03-07T10:46:25.213Z,40.50
2018-03-07T10:47:25.398Z,38.40
2018-03-07T10:48:25.579Z,39.20
2018-03-07T10:49:25.802Z,35.10
2018-03-07T10:50:25.923Z,35.60
2018-03-07T10:51:26.133Z,35.10
2018-03-07T10:52:26.318Z,34.40
2018-03-07T10:53:26.484Z,34.40
2018-03-07T10:54:26.672Z,37.40
2018-03-07T10:55:26.852Z,33.80
2018-03-07T10:56:27.037Z,36.60
2018-03-07T10:57:27.215Z,36.00
2018-03-07T10:58:27.414Z,37.50
2018-03-07T10:59:27.588Z,36.10
2018-03-07T11:00:27.775Z,34.30
2018-03-07T11:01:27.960Z,34.40
2018-03-07T11:02:28.177Z,33.10
2018-03-07T11:03:28.320Z,34.60
2018-03-07T11:04:28.497Z,32.30
2018-03-07T11:05:28.680Z,30.30
2018-03-07T11:06:28.865Z,31.90
2018-03-07T11:07:29.043Z,34.20
2018-03-07T11:08:29.230Z,32.70
2018-03-07T11:09:29.415Z,31.80
2018-03-07T11:10:29.602Z,28.80
2018-03-07T11:11:29.779Z,29.20
2018-03-07T11:12:29.968Z,26.40
2018-03-07T11:13:30.790Z,28.10
2018-03-07T11:14:30.304Z,28.10
2018-03-07T11:15:30.489Z,26.30
2018-03-07T11:16:30.671Z,27.60
2018-03-07T11:17:30.847Z,28.30
2018-03-07T11:18:31.085Z,27.60
2018-03-07T11:19:31.224Z,23.20
2018-03-07T11:21:31.583Z,22.70
2018-03-07T11:22:31.764Z,23.90
2018-03-07T11:23:31.955Z,20.00
2018-03-07T11:24:32.133Z,19.10
2018-03-07T11:25:32.314Z,19.50
2018-03-07T11:26:32.503Z,16.70
2018-03-07T11:27:32.683Z,15.60
2018-03-07T11:28:32.878Z,13.70
2018-03-07T11:29:33.091Z,12.80
2018-03-07T11:30:33.235Z,13.10
2018-03-07T11:31:33.415Z,12.30
2018-03-07T11:32:33.600Z,13.60
2018-03-07T11:33:33.785Z,12.30
2018-03-07T11:34:33.966Z,12.90
2018-03-07T11:35:34.150Z,19.60
2018-03-07T11:36:34.395Z,15.30
2018-03-07T11:37:34.559Z,13.40
2018-03-07T11:38:34.766Z,15.70
2018-03-07T11:39:34.947Z,15.20
2018-03-07T11:40:35.115Z,15.10
2018-03-07T11:41:35.295Z,13.10
2018-03-07T11:42:35.473Z,13.70
2018-03-07T11:43:35.662Z,13.40
2018-03-07T11:45:36.022Z,14.90
2018-03-07T11:46:36.201Z,13.70
2018-03-07T11:47:36.404Z,13.60
2018-03-07T11:48:36.565Z,14.20
2018-03-07T11:49:36.746Z,13.60
2018-03-07T11:50:36.924Z,13.90
2018-03-07T11:51:37.106Z,14.00
2018-03-07T11:52:37.288Z,14.50
2018-03-07T11:53:37.477Z,16.00
2018-03-07T11:54:37.652Z,15.10
2018-03-07T11:55:37.835Z,15.10
2018-03-07T11:56:38.009Z,15.40
2018-03-07T11:57:38.193Z,14.20
2018-03-07T11:58:38.375Z,17.30
2018-03-07T11:59:38.563Z,19.20
2018-03-07T12:00:38.725Z,16.30
2018-03-07T12:01:38.900Z,19.80
2018-03-07T12:02:39.088Z,18.20
2018-03-07T12:03:39.268Z,19.00
2018-03-07T12:04:39.448Z,18.50
2018-03-07T12:05:39.628Z,18.10
2018-03-07T12:06:39.812Z,17.40
2018-03-07T12:07:39.994Z,18.50
2018-03-07T12:08:40.427Z,18.30
2018-03-07T12:09:40.349Z,19.30
2018-03-07T12:10:40.531Z,19.00
2018-03-07T12:11:40.703Z,18.80
2018-03-07T12:12:40.886Z,19.30
2018-03-07T12:13:41.073Z,19.90
2018-03-07T12:14:41.242Z,19.00
2018-03-07T12:15:41.415Z,19.30
2018-03-07T12:16:41.590Z,19.70
2018-03-07T12:17:41.785Z,19.10
2018-03-07T12:18:42.204Z,19.20
2018-03-07T12:19:42.127Z,21.20
2018-03-07T12:20:42.300Z,19.40
2018-03-07T12:21:42.486Z,19.60
2018-03-07T12:22:42.656Z,20.00
2018-03-07T12:23:42.835Z,19.60
2018-03-07T12:24:43.029Z,19.40
2018-03-07T12:25:43.192Z,19.50
2018-03-07T12:26:43.372Z,18.10
2018-03-07T12:27:43.605Z,18.20
2018-03-07T12:28:43.741Z,19.30
2018-03-07T12:29:43.935Z,17.50
2018-03-07T12:30:44.130Z,20.40
2018-03-07T12:31:44.314Z,19.50
2018-03-07T12:32:44.483Z,20.30
2018-03-07T12:33:44.667Z,20.10
2018-03-07T12:34:44.827Z,18.90
2018-03-07T12:35:45.013Z,20.10
2018-03-07T12:36:45.188Z,18.90
2018-03-07T12:37:45.366Z,18.70
2018-03-07T12:38:45.886Z,18.10
2018-03-07T12:39:45.700Z,18.50
2018-03-07T12:40:45.867Z,18.60
2018-03-07T12:41:46.110Z,17.10
2018-03-07T12:42:46.224Z,17.40
2018-03-07T12:43:46.641Z,16.50
2018-03-07T12:44:46.529Z,18.60
2018-03-07T12:45:46.696Z,19.10
2018-03-07T12:46:46.890Z,16.90
2018-03-07T12:47:47.053Z,17.10
2018-03-07T12:48:47.236Z,16.30
2018-03-07T12:49:47.403Z,16.40
2018-03-07T12:50:47.588Z,16.50
2018-03-07T12:51:47.757Z,17.70
2018-03-07T12:52:47.940Z,16.30
2018-03-07T12:53:48.114Z,16.70
2018-03-07T12:54:48.283Z,13.10
2018-03-07T12:55:48.462Z,13.60
2018-03-07T12:56:48.631Z,11.20
2018-03-07T12:57:49.049Z,11.70
2018-03-07T12:58:48.991Z,13.30
2018-03-07T12:59:49.162Z,10.00
2018-03-07T13:00:49.322Z,9.80